createdAt,value
2019-04-11T00:01:45.251Z,0.80
2019-04-11T00:04:09.966Z,0.30
2019-04-11T00:06:36.349Z,0.80
2019-04-11T00:09:08.185Z,0.90
2019-04-11T00:11:35.768Z,0.80
2019-04-11T00:14:03.174Z,0.40
2019-04-11T00:16:29.620Z,0.40
2019-04-11T00:18:56.910Z,0.70
2019-04-11T00:21:24.505Z,0.30
2019-04-11T00:23:51.025Z,1.00
2019-04-11T00:26:17.463Z,0.80
2019-04-11T00:28:43.809Z,0.80
2019-04-11T00:31:10.473Z,0.70
2019-04-11T00:33:36.814Z,0.80
2019-04-11T00:36:04.190Z,0.80
2019-04-11T00:38:30.661Z,0.80
2019-04-11T00:40:57.576Z,1.10
2019-04-11T00:43:31.579Z,1.10
2019-04-11T00:45:52.100Z,0.90
2019-04-11T00:48:19.624Z,0.70
2019-04-11T00:50:45.994Z,0.90
2019-04-11T00:53:12.456Z,0.70
2019-04-11T00:55:39.746Z,0.80
2019-04-11T00:58:06.241Z,0.90
2019-04-11T01:00:33.343Z,0.90
2019-04-11T01:02:59.985Z,1.00
2019-04-11T01:05:27.569Z,0.90
2019-04-11T01:07:54.084Z,0.80
2019-04-11T01:10:20.416Z,0.90
2019-04-11T01:12:46.984Z,0.80
2019-04-11T01:15:15.531Z,0.80
2019-04-11T01:17:41.913Z,0.80
2019-04-11T01:20:08.758Z,0.80
2019-04-11T01:22:35.135Z,0.80
2019-04-11T01:25:01.629Z,0.80
2019-04-11T01:27:29.816Z,0.40
2019-04-11T01:29:56.317Z,1.00
2019-04-11T01:32:23.062Z,1.10
2019-04-11T01:34:49.509Z,0.90
2019-04-11T01:37:15.880Z,1.00
2019-04-11T01:39:50.036Z,1.10
2019-04-11T01:42:17.714Z,0.90
2019-04-11T01:44:45.845Z,0.90
2019-04-11T01:47:15.002Z,1.00
2019-04-11T01:49:41.372Z,0.90
2019-04-11T01:52:07.724Z,0.80
2019-04-11T01:54:34.068Z,0.80
2019-04-11T01:57:01.351Z,0.80
2019-04-11T01:59:29.055Z,0.70
2019-04-11T02:01:57.320Z,0.90
2019-04-11T02:04:25.831Z,0.80
2019-04-11T02:06:52.513Z,0.80
2019-04-11T02:09:19.891Z,0.70
2019-04-11T02:11:46.441Z,0.20
2019-04-11T02:14:16.498Z,0.70
2019-04-11T02:16:41.203Z,0.60
2019-04-11T02:19:07.959Z,0.50
2019-04-11T02:21:35.776Z,0.80
2019-04-11T02:24:07.769Z,0.40
2019-04-11T02:26:44.422Z,0.40
2019-04-11T02:29:11.097Z,0.40
2019-04-11T02:31:38.894Z,0.70
2019-04-11T02:34:06.462Z,0.60
2019-04-11T02:36:34.272Z,0.20
2019-04-11T02:39:09.800Z,0.60
2019-04-11T02:41:35.117Z,0.00
2019-04-11T02:44:03.411Z,0.50
2019-04-11T02:46:41.509Z,0.80
2019-04-11T02:48:59.374Z,0.70
2019-04-11T02:51:27.032Z,0.70
2019-04-11T02:53:54.919Z,0.70
2019-04-11T02:56:23.804Z,0.70
2019-04-11T02:58:51.916Z,0.60
2019-04-11T03:01:20.056Z,0.70
2019-04-11T03:03:47.434Z,0.60
2019-04-11T03:06:15.269Z,0.60
2019-04-11T03:08:43.593Z,0.60
2019-04-11T03:11:10.931Z,0.50
2019-04-11T03:13:38.447Z,0.50
2019-04-11T03:16:23.714Z,0.20
2019-04-11T03:18:53.491Z,0.60
2019-04-11T03:21:06.541Z,0.60
2019-04-11T03:23:31.117Z,0.80
2019-04-11T03:25:58.316Z,0.70
2019-04-11T03:28:28.272Z,0.70
2019-04-11T03:31:13.805Z,0.80
2019-04-11T03:36:37.560Z,0.80
2019-04-11T03:38:44.115Z,0.70
2019-04-11T03:41:04.371Z,0.70
2019-04-11T03:43:26.140Z,0.80
2019-04-11T03:46:00.047Z,0.60
2019-04-11T03:48:26.658Z,0.80
2019-04-11T03:50:40.277Z,0.60
2019-04-11T03:53:09.384Z,0.20
2019-04-11T03:55:35.128Z,0.60
2019-04-11T03:58:01.555Z,0.80
2019-04-11T04:00:33.576Z,0.70
2019-04-11T04:02:57.956Z,0.80
2019-04-11T04:05:26.449Z,0.30
2019-04-11T04:07:52.931Z,0.70
2019-04-11T04:10:21.736Z,0.80
2019-04-11T04:12:48.272Z,0.80
2019-04-11T04:15:39.263Z,0.80
2019-04-11T04:17:51.912Z,0.60
2019-04-11T04:20:37.172Z,0.60
2019-04-11T04:23:12.475Z,0.80
2019-04-11T04:25:42.761Z,0.90
2019-04-11T04:28:10.160Z,0.60
2019-04-11T04:30:38.526Z,0.20
2019-04-11T04:33:05.107Z,0.70
2019-04-11T04:35:33.745Z,0.80
2019-04-11T04:38:00.536Z,0.70
2019-04-11T04:40:47.955Z,0.70
2019-04-11T04:43:00.570Z,0.60
2019-04-11T04:45:27.735Z,0.70
2019-04-11T04:48:01.376Z,0.30
2019-04-11T04:50:22.505Z,0.80
2019-04-11T04:52:51.396Z,0.90
2019-04-11T04:55:19.302Z,0.90
2019-04-11T04:57:45.677Z,0.90
2019-04-11T05:00:14.137Z,0.90
2019-04-11T05:02:41.993Z,1.00
2019-04-11T05:05:09.414Z,1.00
2019-04-11T05:07:40.208Z,1.00
2019-04-11T05:10:07.261Z,1.10
2019-04-11T05:12:34.587Z,1.00
2019-04-11T05:15:01.487Z,1.00
2019-04-11T05:17:28.901Z,0.40
2019-04-11T05:19:56.548Z,0.90
2019-04-11T05:22:23.089Z,1.10
2019-04-11T05:24:49.518Z,0.90
2019-04-11T05:27:15.962Z,0.40
2019-04-11T05:29:42.205Z,1.00
2019-04-11T05:32:09.347Z,1.00
2019-04-11T05:34:35.705Z,1.00
2019-04-11T05:37:02.241Z,1.10
2019-04-11T05:39:28.612Z,1.10
2019-04-11T05:41:55.062Z,1.20
2019-04-11T05:44:21.553Z,1.20
2019-04-11T05:46:55.855Z,1.30
2019-04-11T05:49:23.772Z,1.50
2019-04-11T05:51:57.968Z,1.30
2019-04-11T05:54:24.356Z,1.30
2019-04-11T05:56:56.431Z,1.30
2019-04-11T05:59:23.949Z,1.30
2019-04-11T06:01:52.996Z,1.50
2019-04-11T06:04:37.849Z,1.50
2019-04-11T06:07:08.381Z,1.20
2019-04-11T06:09:38.185Z,1.40
2019-04-11T06:12:07.512Z,1.40
2019-04-11T06:14:39.620Z,1.40
2019-04-11T06:17:09.130Z,1.40
2019-04-11T06:19:53.481Z,1.40
2019-04-11T06:22:19.987Z,1.30
2019-04-11T06:24:52.194Z,1.70
2019-04-11T06:27:20.684Z,1.50
2019-04-11T06:30:05.593Z,1.60
2019-04-11T06:32:34.169Z,2.20
2019-04-11T06:35:02.417Z,2.80
2019-04-11T06:37:47.312Z,2.40
2019-04-11T06:40:15.887Z,2.70
2019-04-11T06:42:47.650Z,2.80
2019-04-11T06:45:32.345Z,2.60
2019-04-11T06:48:19.019Z,2.60
2019-04-11T06:51:02.061Z,2.70
2019-04-11T06:53:30.404Z,2.60
2019-04-11T06:56:15.143Z,2.70
2019-04-11T06:58:43.669Z,2.90
2019-04-11T07:01:12.119Z,3.10
2019-04-11T07:03:43.006Z,3.20
2019-04-11T07:06:11.343Z,3.40
2019-04-11T07:08:56.750Z,3.40
2019-04-11T07:11:28.029Z,3.60
2019-04-11T07:13:56.169Z,3.60
2019-04-11T07:16:22.515Z,3.70
2019-04-11T07:19:00.622Z,3.30
2019-04-11T07:21:29.096Z,3.10
2019-04-11T07:24:13.886Z,2.60
2019-04-11T07:26:42.088Z,2.60
2019-04-11T07:29:19.502Z,2.70
2019-04-11T07:31:50.768Z,1.90
2019-04-11T07:34:19.473Z,2.10
2019-04-11T07:37:04.683Z,2.10
2019-04-11T07:39:45.059Z,2.30
2019-04-11T07:42:31.062Z,2.10
2019-04-11T07:44:59.861Z,2.10
2019-04-11T07:47:40.108Z,2.20
2019-04-11T07:50:07.968Z,2.40
2019-04-11T07:52:36.317Z,2.60
2019-04-11T07:55:02.995Z,2.70
2019-04-11T07:57:38.301Z,2.70
2019-04-11T08:00:13.176Z,2.80
2019-04-11T08:02:41.419Z,2.80
2019-04-11T08:05:19.310Z,3.00
2019-04-11T08:07:47.533Z,2.90
2019-04-11T08:10:16.049Z,2.70
2019-04-11T08:12:43.265Z,2.50
2019-04-11T08:15:21.601Z,2.50
2019-04-11T08:17:48.091Z,2.40
2019-04-11T08:20:34.164Z,2.60
2019-04-11T08:23:03.549Z,2.70
2019-04-11T08:25:31.748Z,2.60
2019-04-11T08:28:02.367Z,2.80
2019-04-11T08:30:47.097Z,2.90
2019-04-11T08:33:16.181Z,2.50
2019-04-11T08:35:59.791Z,2.50
2019-04-11T08:38:30.504Z,2.40
2019-04-11T08:41:01.466Z,2.60
2019-04-11T08:43:31.034Z,2.80
2019-04-11T08:46:11.401Z,2.90
2019-04-11T08:48:39.673Z,2.60
2019-04-11T08:51:11.413Z,2.30
2019-04-11T08:53:40.653Z,2.50
2019-04-11T08:56:07.226Z,2.70
2019-04-11T08:58:38.536Z,2.80
2019-04-11T09:01:09.716Z,2.80
2019-04-11T09:03:57.386Z,3.00
2019-04-11T09:06:17.066Z,2.90
2019-04-11T09:09:02.826Z,2.80
2019-04-11T09:11:36.641Z,2.80
2019-04-11T09:14:08.140Z,3.10
2019-04-11T09:16:54.075Z,3.00
2019-04-11T09:19:38.977Z,3.00
2019-04-11T09:22:10.972Z,2.90
2019-04-11T09:24:39.452Z,3.10
2019-04-11T09:27:24.806Z,3.30
2019-04-11T09:30:02.544Z,3.30
2019-04-11T09:32:48.681Z,3.40
2019-04-11T09:35:33.462Z,3.60
2019-04-11T09:38:02.186Z,3.80
2019-04-11T09:40:42.186Z,4.10
2019-04-11T09:43:13.148Z,4.20
2019-04-11T09:45:47.970Z,3.50
2019-04-11T09:48:18.237Z,3.30
2019-04-11T09:50:49.156Z,3.20
2019-04-11T09:53:19.154Z,3.10
2019-04-11T09:55:47.891Z,2.70
2019-04-11T09:58:27.632Z,2.60
2019-04-11T10:01:12.481Z,2.70
2019-04-11T10:03:39.181Z,2.80
2019-04-11T10:06:07.705Z,2.80
2019-04-11T10:08:37.198Z,2.90
2019-04-11T10:11:06.071Z,3.00
2019-04-11T10:13:51.176Z,3.10
2019-04-11T10:16:26.287Z,3.20
2019-04-11T10:19:00.365Z,3.40
2019-04-11T10:21:28.978Z,3.40
2019-04-11T10:24:02.980Z,3.40
2019-04-11T10:26:31.957Z,3.30
2019-04-11T10:29:17.174Z,3.30
2019-04-11T10:31:48.518Z,3.40
2019-04-11T10:34:33.535Z,3.70
2019-04-11T10:37:01.230Z,4.10
2019-04-11T10:39:35.633Z,4.20
2019-04-11T10:42:04.303Z,3.70
2019-04-11T10:44:32.607Z,3.30
2019-04-11T10:47:05.740Z,3.30
2019-04-11T10:49:36.604Z,3.10
2019-04-11T10:52:05.044Z,3.10
2019-04-11T10:54:34.972Z,2.70
2019-04-11T10:57:15.952Z,2.40
2019-04-11T10:59:44.924Z,2.30
2019-04-11T11:02:29.308Z,2.60
2019-04-11T11:04:56.959Z,2.80
2019-04-11T11:07:24.625Z,3.00
2019-04-11T11:09:56.731Z,3.10
2019-04-11T11:12:25.462Z,3.20
2019-04-11T11:15:09.439Z,3.30
2019-04-11T11:18:25.142Z,3.40
2019-04-11T11:20:33.696Z,3.60
2019-04-11T11:22:56.050Z,3.80
2019-04-11T11:25:44.451Z,4.00
2019-04-11T11:28:09.554Z,4.10
2019-04-11T11:30:37.797Z,4.30
2019-04-11T11:33:05.596Z,4.60
2019-04-11T11:35:42.944Z,4.90
2019-04-11T11:38:11.440Z,5.30
2019-04-11T11:40:42.416Z,5.50
2019-04-11T11:43:19.018Z,4.90
2019-04-11T11:45:51.615Z,4.00
2019-04-11T11:48:22.279Z,3.90
2019-04-11T11:50:51.341Z,3.80
2019-04-11T11:53:22.965Z,3.90
2019-04-11T11:55:51.661Z,4.10
2019-04-11T11:58:36.418Z,3.90
2019-04-11T12:01:08.990Z,4.10
2019-04-11T12:03:52.690Z,4.50
2019-04-11T12:06:22.499Z,4.20
2019-04-11T12:08:51.513Z,4.30
2019-04-11T12:11:17.969Z,4.20
2019-04-11T12:14:02.571Z,4.30
2019-04-11T12:16:34.558Z,4.50
2019-04-11T12:19:02.864Z,4.70
2019-04-11T12:21:37.018Z,5.00
2019-04-11T12:24:21.561Z,5.00
2019-04-11T12:26:50.017Z,5.10
2019-04-11T12:29:24.122Z,5.20
2019-04-11T12:31:52.458Z,5.20
2019-04-11T12:34:20.581Z,5.10
2019-04-11T12:36:51.000Z,4.80
2019-04-11T12:39:24.355Z,4.50
2019-04-11T12:41:50.676Z,4.50
2019-04-11T12:44:21.891Z,4.30
2019-04-11T12:46:52.881Z,4.20
2019-04-11T12:49:21.217Z,4.20
2019-04-11T12:52:05.717Z,4.40
2019-04-11T12:54:33.961Z,4.60
2019-04-11T12:57:13.959Z,5.10
2019-04-11T12:59:40.683Z,5.30
2019-04-11T13:02:23.701Z,5.30
2019-04-11T13:04:50.066Z,4.80
2019-04-11T13:07:27.488Z,4.60
2019-04-11T13:09:55.824Z,4.50
2019-04-11T13:12:40.684Z,4.40
2019-04-11T13:15:12.065Z,4.30
2019-04-11T13:17:49.356Z,3.90
2019-04-11T13:20:20.249Z,4.00
2019-04-11T13:22:48.385Z,3.90
2019-04-11T13:25:33.129Z,4.00
2019-04-11T13:27:59.369Z,4.10
2019-04-11T13:30:44.673Z,4.10
2019-04-11T13:33:13.012Z,4.10
2019-04-11T13:35:50.373Z,4.20
2019-04-11T13:38:18.697Z,4.20
2019-04-11T13:40:47.037Z,4.20
2019-04-11T13:43:33.200Z,4.10
2019-04-11T13:46:01.529Z,4.20
2019-04-11T13:48:47.923Z,4.20
2019-04-11T13:51:21.830Z,3.80
2019-04-11T13:54:06.461Z,4.00
2019-04-11T13:56:51.226Z,4.10
2019-04-11T13:59:34.345Z,4.00
2019-04-11T14:02:02.869Z,3.90
2019-04-11T14:04:33.983Z,3.80
2019-04-11T14:07:00.501Z,3.80
2019-04-11T14:09:30.866Z,3.70
2019-04-11T14:11:57.213Z,3.80
2019-04-11T14:14:25.229Z,4.00
2019-04-11T14:16:58.368Z,4.10
2019-04-11T14:19:32.447Z,4.20
2019-04-11T14:21:58.885Z,4.10
2019-04-11T14:24:36.405Z,4.30
2019-04-11T14:27:19.733Z,4.30
2019-04-11T14:29:48.068Z,4.30
2019-04-11T14:32:19.370Z,4.40
2019-04-11T14:34:47.711Z,4.10
2019-04-11T14:37:22.063Z,4.00
2019-04-11T14:39:53.253Z,3.80
2019-04-11T14:42:42.452Z,3.60
2019-04-11T14:45:08.623Z,3.50
2019-04-11T14:47:39.924Z,3.40
2019-04-11T14:50:08.788Z,3.30
2019-04-11T14:52:41.269Z,3.30
2019-04-11T14:55:08.763Z,3.30
2019-04-11T14:57:43.197Z,3.40
2019-04-11T15:00:21.875Z,3.40
2019-04-11T15:02:51.192Z,3.60
2019-04-11T15:05:19.330Z,3.60
2019-04-11T15:07:46.082Z,3.40
2019-04-11T15:10:31.317Z,3.30
2019-04-11T15:12:58.076Z,3.40
2019-04-11T15:15:35.261Z,3.30
2019-04-11T15:18:03.395Z,3.10
2019-04-11T15:20:34.799Z,3.20
2019-04-11T15:23:09.088Z,3.30
2019-04-11T15:25:55.278Z,3.30
2019-04-11T15:28:38.565Z,3.40
2019-04-11T15:31:18.498Z,3.30
2019-04-11T15:36:49.298Z,3.20
2019-04-11T15:39:44.141Z,3.10
2019-04-11T15:42:34.443Z,3.20
2019-04-11T15:45:16.009Z,3.30
2019-04-11T15:48:15.153Z,3.40
2019-04-11T15:51:06.495Z,2.90
2019-04-11T15:53:45.335Z,3.20
2019-04-11T15:56:44.670Z,3.40
2019-04-11T15:59:44.553Z,3.30
2019-04-11T16:02:44.040Z,3.30
2019-04-11T16:05:25.385Z,3.20
2019-04-11T16:08:24.425Z,3.10
2019-04-11T16:14:11.722Z,3.20
2019-04-11T16:16:55.422Z,3.10
2019-04-11T16:19:54.684Z,3.20
2019-04-11T16:22:55.354Z,3.50
2019-04-11T16:25:35.298Z,3.40
2019-04-11T16:28:35.812Z,3.50
2019-04-11T16:31:16.585Z,3.50
2019-04-11T16:34:16.720Z,3.40
2019-04-11T16:36:55.799Z,3.40
2019-04-11T16:39:55.279Z,3.30
2019-04-11T16:42:36.781Z,3.20
2019-04-11T16:45:35.930Z,3.10
2019-04-11T16:48:15.137Z,3.30
2019-04-11T16:50:55.073Z,3.20
2019-04-11T16:53:35.117Z,3.30
2019-04-11T16:56:12.741Z,3.30
2019-04-11T16:58:53.042Z,3.10
2019-04-11T17:11:01.243Z,3.00
2019-04-11T17:13:40.562Z,3.00
2019-04-11T17:19:18.248Z,3.00
2019-04-11T17:21:57.441Z,2.90
2019-04-11T17:24:37.700Z,2.80
2019-04-11T17:27:17.493Z,3.00
2019-04-11T17:29:56.822Z,3.00
2019-04-11T17:32:36.726Z,2.80
2019-04-11T17:35:16.801Z,2.80
2019-04-11T17:37:56.766Z,2.70
2019-04-11T17:40:39.360Z,2.50
2019-04-11T17:43:16.921Z,2.70
2019-04-11T17:45:57.659Z,2.70
2019-04-11T17:48:37.153Z,2.80
2019-04-11T17:51:17.163Z,2.60
2019-04-11T17:53:57.213Z,2.70
2019-04-11T17:56:37.493Z,2.60
2019-04-11T17:59:17.229Z,2.70
2019-04-11T18:01:57.577Z,2.60
2019-04-11T18:04:37.394Z,2.70
2019-04-11T18:07:17.755Z,2.70
2019-04-11T18:09:57.342Z,2.50
2019-04-11T18:15:35.510Z,2.50
2019-04-11T18:18:15.453Z,2.40
2019-04-11T18:20:55.562Z,2.30
2019-04-11T18:23:36.030Z,2.40
2019-04-11T18:26:15.618Z,2.50
2019-04-11T18:28:55.331Z,2.30
2019-04-11T18:31:35.180Z,2.30
2019-04-11T18:34:14.457Z,2.40
2019-04-11T18:36:54.693Z,2.10
2019-04-11T18:39:36.011Z,2.40
2019-04-11T18:42:15.934Z,2.30
2019-04-11T18:44:55.147Z,2.20
2019-04-11T18:47:35.218Z,2.00
2019-04-11T18:50:15.605Z,2.00
2019-04-11T18:52:59.190Z,2.20
2019-04-11T18:55:37.140Z,2.10
2019-04-11T18:58:16.584Z,2.10
2019-04-11T19:00:56.645Z,2.10
2019-04-11T19:03:36.720Z,1.80
2019-04-11T19:06:27.225Z,1.80
2019-04-11T19:08:57.443Z,1.70
2019-04-11T19:11:37.473Z,1.60
2019-04-11T19:14:16.793Z,1.60
2019-04-11T19:16:56.694Z,1.70
2019-04-11T19:19:36.713Z,1.70
2019-04-11T19:22:16.585Z,1.40
2019-04-11T19:24:56.635Z,1.60
2019-04-11T19:27:36.557Z,1.10
2019-04-11T19:30:14.854Z,1.10
2019-04-11T19:33:01.330Z,1.40
2019-04-11T19:35:41.612Z,1.50
2019-04-11T19:41:29.329Z,1.40
2019-04-11T19:44:10.270Z,1.30
2019-04-11T19:46:50.970Z,1.30
2019-04-11T19:49:31.545Z,0.90
2019-04-11T19:52:11.591Z,1.30
2019-04-11T20:01:02.023Z,1.30
2019-04-11T20:03:41.669Z,1.10
2019-04-11T20:06:20.836Z,1.10
2019-04-11T20:08:59.998Z,0.50
2019-04-11T20:11:40.169Z,1.00
2019-04-11T20:14:20.111Z,1.20
2019-04-11T20:16:58.506Z,1.30
2019-04-11T20:22:59.073Z,1.30
2019-04-11T20:25:35.250Z,1.20
2019-04-11T20:28:19.639Z,1.40
2019-04-11T20:30:56.573Z,1.50
2019-04-11T20:33:34.938Z,1.20
2019-04-11T20:36:32.599Z,1.00
2019-04-11T20:44:59.200Z,1.30
2019-04-11T20:47:38.876Z,1.00
2019-04-11T20:50:18.784Z,1.00
2019-04-11T20:53:00.472Z,0.90
2019-04-11T20:55:39.907Z,1.20
2019-04-11T20:58:27.180Z,0.90
2019-04-11T21:01:00.261Z,1.00
2019-04-11T21:03:40.140Z,0.90
2019-04-11T21:06:20.098Z,0.90
2019-04-11T21:09:02.868Z,1.00
2019-04-11T21:11:39.294Z,0.90
2019-04-11T21:14:25.481Z,0.30
2019-04-11T21:17:05.189Z,0.70
2019-04-11T21:19:44.998Z,0.70
2019-04-11T21:22:24.929Z,0.50
2019-04-11T21:25:04.729Z,0.70
2019-04-11T21:27:44.774Z,0.70
2019-04-11T21:30:24.815Z,0.70
2019-04-11T21:33:03.744Z,0.60
2019-04-11T21:35:44.069Z,0.60
2019-04-11T21:38:24.261Z,0.60
2019-04-11T21:40:50.661Z,0.50
2019-04-11T21:43:16.885Z,0.50
2019-04-11T21:45:43.257Z,0.40
2019-04-11T21:48:09.601Z,0.20
2019-04-11T21:50:40.274Z,0.00
2019-04-11T21:53:04.089Z,0.50
2019-04-11T21:55:30.745Z,0.20
2019-04-11T21:57:56.989Z,0.40
2019-04-11T22:00:31.725Z,0.60
2019-04-11T22:02:58.074Z,0.40
2019-04-11T22:05:24.409Z,0.30
2019-04-11T22:07:51.028Z,0.30
2019-04-11T22:10:17.450Z,0.30
2019-04-11T22:12:43.901Z,0.30
2019-04-11T22:15:12.076Z,0.30
2019-04-11T22:17:38.477Z,0.20
2019-04-11T22:20:05.013Z,0.30
2019-04-11T22:22:31.468Z,0.20
2019-04-11T22:24:59.714Z,0.50
2019-04-11T22:27:26.148Z,0.20
2019-04-11T22:29:54.944Z,0.30
2019-04-11T22:32:20.660Z,0.10
2019-04-11T22:34:47.100Z,0.30
2019-04-11T22:37:13.725Z,0.30
2019-04-11T22:39:40.260Z,0.20
2019-04-11T22:42:06.613Z,0.10
2019-04-11T22:44:33.083Z,0.00
2019-04-11T22:46:59.308Z,0.30
2019-04-11T22:49:25.740Z,0.10
2019-04-11T22:51:52.312Z,0.10
2019-04-11T22:54:18.553Z,0.20
2019-04-11T22:56:45.065Z,-0.10
2019-04-11T22:59:13.609Z,0.00
2019-04-11T23:01:40.050Z,0.20
2019-04-11T23:04:06.385Z,0.10
2019-04-11T23:06:32.760Z,0.00
2019-04-11T23:08:59.090Z,-0.50
2019-04-11T23:11:25.424Z,0.00
2019-04-11T23:13:51.773Z,-0.10
2019-04-11T23:16:18.209Z,-0.10
2019-04-11T23:18:44.889Z,-0.10
2019-04-11T23:21:14.313Z,-0.10
2019-04-11T23:23:40.141Z,-0.10
2019-04-11T23:26:06.476Z,-0.20
2019-04-11T23:28:32.744Z,-0.30
2019-04-11T23:30:58.982Z,-0.20
2019-04-11T23:33:25.213Z,-0.20
2019-04-11T23:35:51.765Z,-0.30
2019-04-11T23:38:18.205Z,-0.30
2019-04-11T23:40:44.572Z,-0.40
2019-04-11T23:43:10.944Z,-0.40
2019-04-11T23:45:37.217Z,-0.30
2019-04-11T23:48:03.664Z,-0.30
2019-04-11T23:50:30.176Z,-0.20
2019-04-11T23:52:57.859Z,-0.30
2019-04-11T23:55:24.368Z,-0.70
2019-04-11T23:57:50.933Z,-0.50
